Time;durP1;ratioP1;P1;durP2;ratioP2;P2;SDS_P1;SDS_P2;PMS_P1;PMS_P2;Temp;Humidity;BMP_temperature;BMP_pressure;BME280_temperature;BME280_humidity;BME280_pressure;Samples;Min_cycle;Max_cycle;Signal;HPM_P1;HPM_P2
2021/04/02 00:01:35;;;;;;;18.00;4.57;;;3.70;91.00;;;;;;5016058;28;20304;-42
2021/04/02 00:04:04;;;;;;;12.07;4.40;;;3.70;90.90;;;;;;5028137;28;20060;-43
2021/04/02 00:06:31;;;;;;;12.48;4.55;;;3.70;90.80;;;;;;5028398;28;20054;-43
2021/04/02 00:08:59;;;;;;;8.50;3.95;;;3.70;90.80;;;;;;5029342;28;20057;-43
2021/04/02 00:11:28;;;;;;;11.32;4.13;;;3.70;90.90;;;;;;5027471;28;20060;-41
2021/04/02 00:13:56;;;;;;;11.20;4.25;;;3.70;90.80;;;;;;5028447;28;20052;-42
2021/04/02 00:16:28;;;;;;;9.35;3.95;;;3.70;90.80;;;;;;5027738;28;20171;-42
2021/04/02 00:18:54;;;;;;;9.52;4.35;;;3.60;90.60;;;;;;5028442;28;20140;-43
2021/04/02 00:21:25;;;;;;;12.80;4.40;;;3.60;90.50;;;;;;5028434;28;20061;-42
2021/04/02 00:23:51;;;;;;;13.00;3.72;;;3.60;91.00;;;;;;5028423;28;20553;-43
2021/04/02 00:26:22;;;;;;;9.13;3.08;;;3.60;90.90;;;;;;5028911;28;20133;-42
2021/04/02 00:28:53;;;;;;;10.20;3.70;;;3.60;90.50;;;;;;5028177;28;20056;-42
2021/04/02 00:31:23;;;;;;;9.88;3.53;;;3.60;90.80;;;;;;5026387;28;20585;-44
2021/04/02 00:33:56;;;;;;;11.53;3.70;;;3.60;90.80;;;;;;5029039;28;20812;-43
2021/04/02 00:36:30;;;;;;;11.83;4.60;;;3.60;90.50;;;;;;5027531;28;20528;-42
2021/04/02 00:38:56;;;;;;;10.63;3.65;;;3.50;90.80;;;;;;5027833;28;20053;-42
2021/04/02 00:41:27;;;;;;;9.68;3.53;;;3.60;90.80;;;;;;5029265;28;20052;-43
2021/04/02 00:43:58;;;;;;;14.95;3.92;;;3.60;90.70;;;;;;5027818;28;20123;-43
2021/04/02 00:46:28;;;;;;;7.18;3.83;;;3.50;90.60;;;;;;5016278;28;20049;-42
2021/04/02 00:49:04;;;;;;;10.20;3.65;;;3.50;90.70;;;;;;5027529;28;20057;-42
2021/04/02 00:51:33;;;;;;;14.05;3.83;;;3.50;90.60;;;;;;5027631;28;20052;-42
2021/04/02 00:54:02;;;;;;;12.02;3.60;;;3.50;90.70;;;;;;5026788;28;20049;-42
2021/04/02 00:56:34;;;;;;;9.20;3.53;;;3.50;91.10;;;;;;5026678;28;20049;-42
2021/04/02 00:59:00;;;;;;;13.07;3.40;;;3.50;90.90;;;;;;5028486;28;20045;-42
2021/04/02 01:01:28;;;;;;;8.93;3.10;;;3.50;90.70;;;;;;5026801;28;20087;-44
2021/04/02 01:03:54;;;;;;;8.18;3.33;;;3.50;91.20;;;;;;5026933;28;20057;-43
2021/04/02 01:06:26;;;;;;;16.17;3.58;;;3.40;90.90;;;;;;5025447;28;20489;-42
2021/04/02 01:09:02;;;;;;;8.55;3.67;;;3.40;91.10;;;;;;5029370;28;20064;-42
2021/04/02 01:11:36;;;;;;;9.52;3.30;;;3.40;91.30;;;;;;5025641;28;20060;-42
2021/04/02 01:14:04;;;;;;;9.57;4.10;;;3.40;90.90;;;;;;5031214;28;20103;-42
2021/04/02 01:16:33;;;;;;;8.90;3.83;;;3.40;91.20;;;;;;5027892;28;20053;-42
2021/04/02 01:19:16;;;;;;;8.45;3.65;;;3.40;91.20;;;;;;5025348;28;20123;-42
2021/04/02 01:22:03;;;;;;;14.88;4.50;;;3.40;90.90;;;;;;5023191;28;20056;-42
2021/04/02 01:24:54;;;;;;;8.23;3.67;;;3.40;90.90;;;;;;5024094;28;20119;-42
2021/04/02 01:27:44;;;;;;;12.75;3.83;;;3.40;91.00;;;;;;5025190;28;20050;-43
2021/04/02 01:30:13;;;;;;;12.63;3.42;;;3.40;90.90;;;;;;5025303;28;20149;-42
2021/04/02 01:32:45;;;;;;;13.63;3.65;;;3.40;91.30;;;;;;5024563;28;20172;-42
2021/04/02 01:35:31;;;;;;;16.65;3.95;;;3.40;91.10;;;;;;5028061;28;20083;-42
2021/04/02 01:38:15;;;;;;;10.35;4.18;;;3.40;91.40;;;;;;5030061;28;20053;-42
2021/04/02 01:40:49;;;;;;;11.25;3.80;;;3.40;91.10;;;;;;5024296;28;20057;-42
2021/04/02 01:43:29;;;;;;;10.50;3.83;;;3.50;91.40;;;;;;5024522;28;20065;-42
2021/04/02 01:46:02;;;;;;;9.45;3.65;;;3.40;91.60;;;;;;5024027;28;20049;-43
2021/04/02 01:48:30;;;;;;;14.48;4.40;;;3.50;91.60;;;;;;5024323;28;20107;-42
2021/04/02 01:51:00;;;;;;;13.10;4.57;;;3.50;91.50;;;;;;5025266;28;20046;-42
2021/04/02 01:53:30;;;;;;;15.93;4.65;;;3.50;91.70;;;;;;5024967;28;20555;-42
2021/04/02 01:56:03;;;;;;;12.30;5.20;;;3.50;91.90;;;;;;5024559;28;20045;-42
2021/04/02 01:58:32;;;;;;;16.15;5.43;;;3.50;91.90;;;;;;5025122;28;20860;-43
2021/04/02 02:01:00;;;;;;;12.50;4.40;;;3.50;91.70;;;;;;5023677;28;20100;-43
2021/04/02 02:03:40;;;;;;;13.48;5.20;;;3.50;91.90;;;;;;5024071;28;20049;-42
2021/04/02 02:06:08;;;;;;;13.05;4.57;;;3.50;91.80;;;;;;5024003;28;20061;-42
2021/04/02 02:08:36;;;;;;;12.35;4.97;;;3.50;92.00;;;;;;5025031;28;20049;-41
2021/04/02 02:11:19;;;;;;;19.95;5.63;;;3.50;92.10;;;;;;5025305;28;20045;-42
2021/04/02 02:13:56;;;;;;;14.38;5.38;;;3.50;92.30;;;;;;5030908;28;20045;-42
2021/04/02 02:16:27;;;;;;;13.93;5.53;;;3.50;92.20;;;;;;5024272;28;20053;-42
2021/04/02 02:18:58;;;;;;;14.18;5.38;;;3.50;92.30;;;;;;5027848;28;20414;-41
2021/04/02 02:21:26;;;;;;;20.33;5.07;;;3.50;92.50;;;;;;5031826;28;20045;-42
2021/04/02 02:23:59;;;;;;;12.73;5.93;;;3.50;92.80;;;;;;5027884;28;20490;-41
2021/04/02 02:26:31;;;;;;;15.15;5.97;;;3.50;92.40;;;;;;5027806;28;20124;-42
2021/04/02 02:29:02;;;;;;;14.77;5.72;;;3.50;92.40;;;;;;5028266;28;20049;-42
2021/04/02 02:31:28;;;;;;;16.17;5.50;;;3.50;92.30;;;;;;5028012;28;20072;-43
2021/04/02 02:33:57;;;;;;;14.23;4.97;;;3.50;92.40;;;;;;5027612;28;20058;-41
2021/04/02 02:36:27;;;;;;;14.40;5.85;;;3.50;92.70;;;;;;5027297;28;20049;-43
2021/04/02 02:38:56;;;;;;;9.35;5.30;;;3.50;92.40;;;;;;5029537;28;20056;-42
2021/04/02 02:41:30;;;;;;;17.20;6.20;;;3.50;92.30;;;;;;5027274;28;20046;-42
2021/04/02 02:43:57;;;;;;;10.02;5.68;;;3.50;92.30;;;;;;5027498;28;20049;-42
2021/04/02 02:46:25;;;;;;;13.52;5.65;;;3.50;92.30;;;;;;5027271;28;20049;-42
2021/04/02 02:49:04;;;;;;;12.52;5.63;;;3.40;92.20;;;;;;5027922;28;20148;-42
2021/04/02 02:51:31;;;;;;;11.30;5.40;;;3.40;92.00;;;;;;5027531;28;20045;-43
2021/04/02 02:54:05;;;;;;;13.32;5.57;;;3.40;92.10;;;;;;5027519;28;20069;-42
2021/04/02 02:56:40;;;;;;;13.18;5.60;;;3.40;92.20;;;;;;5027327;28;20065;-41
2021/04/02 02:59:13;;;;;;;10.95;5.57;;;3.40;92.30;;;;;;5029127;28;20068;-41
2021/04/02 03:01:42;;;;;;;11.32;5.80;;;3.40;92.50;;;;;;5027434;28;20061;-42
2021/04/02 03:04:14;;;;;;;18.60;6.00;;;3.40;92.20;;;;;;5027165;28;20091;-44
2021/04/02 03:06:41;;;;;;;11.27;5.78;;;3.40;92.40;;;;;;5032900;28;20044;-43
2021/04/02 03:09:13;;;;;;;11.10;5.43;;;3.40;92.50;;;;;;5028610;28;20160;-43
2021/04/02 03:11:42;;;;;;;17.93;6.60;;;3.40;92.50;;;;;;5026451;28;20453;-42
2021/04/02 03:14:24;;;;;;;19.02;5.82;;;3.30;92.30;;;;;;5027758;28;20373;-42
2021/04/02 03:16:52;;;;;;;13.60;6.03;;;3.30;92.30;;;;;;5026188;28;20140;-42
2021/04/02 03:19:23;;;;;;;16.77;5.80;;;3.30;92.40;;;;;;5031733;28;20037;-42
2021/04/02 03:21:53;;;;;;;11.95;5.30;;;3.30;92.10;;;;;;5024936;28;20565;-42
2021/04/02 03:24:23;;;;;;;15.35;6.20;;;3.30;92.30;;;;;;5030688;28;20037;-43
2021/04/02 03:26:53;;;;;;;11.13;5.75;;;3.30;92.40;;;;;;5026910;28;20049;-42
2021/04/02 03:29:23;;;;;;;12.40;5.35;;;3.30;92.20;;;;;;5028624;28;20112;-42
2021/04/02 03:31:58;;;;;;;15.43;5.55;;;3.30;92.30;;;;;;5026018;28;20057;-41
2021/04/02 03:34:30;;;;;;;11.88;4.95;;;3.40;92.40;;;;;;5009737;28;20519;-42
2021/04/02 03:37:05;;;;;;;12.38;4.53;;;3.40;92.30;;;;;;5027356;28;20177;-42
2021/04/02 03:39:34;;;;;;;17.00;6.07;;;3.40;92.30;;;;;;5027095;28;20054;-42
2021/04/02 03:42:12;;;;;;;15.02;5.68;;;3.40;92.50;;;;;;5026611;28;20049;-42
2021/04/02 03:44:45;;;;;;;13.15;4.55;;;3.40;92.20;;;;;;5024959;28;20054;-42
2021/04/02 03:47:19;;;;;;;11.30;4.38;;;3.40;92.00;;;;;;5026642;28;20110;-43
2021/04/02 03:49:51;;;;;;;12.48;5.15;;;3.40;92.20;;;;;;5027240;28;20228;-43
2021/04/02 03:52:25;;;;;;;13.63;5.55;;;3.40;92.10;;;;;;5026923;28;20091;-44
2021/04/02 03:55:02;;;;;;;13.52;4.63;;;3.40;92.20;;;;;;5026104;28;20697;-43
2021/04/02 03:57:36;;;;;;;16.50;4.32;;;3.40;92.00;;;;;;5030373;28;20044;-43
2021/04/02 04:00:17;;;;;;;12.57;4.53;;;3.30;91.90;;;;;;5026849;28;20079;-42
2021/04/02 04:02:51;;;;;;;15.13;4.95;;;3.30;91.90;;;;;;5026816;28;20136;-42
2021/04/02 04:05:23;;;;;;;15.30;5.00;;;3.30;92.00;;;;;;5025681;28;20054;-42
2021/04/02 04:07:53;;;;;;;15.30;4.80;;;3.30;92.00;;;;;;5029537;28;20097;-42
2021/04/02 04:10:19;;;;;;;11.95;5.03;;;3.20;92.00;;;;;;5025986;28;20053;-42
2021/04/02 04:12:53;;;;;;;12.43;4.40;;;3.20;92.10;;;;;;5026217;28;20459;-43
2021/04/02 04:15:23;;;;;;;15.77;4.65;;;3.20;91.80;;;;;;5026256;28;20491;-42
2021/04/02 04:17:56;;;;;;;16.73;4.85;;;3.10;91.80;;;;;;5027261;28;20076;-43
2021/04/02 04:20:29;;;;;;;13.73;4.85;;;3.10;92.10;;;;;;5027549;28;20045;-42
2021/04/02 04:22:59;;;;;;;17.23;4.80;;;3.10;92.00;;;;;;5029546;28;20056;-42
2021/04/02 04:25:32;;;;;;;15.32;5.10;;;3.10;91.90;;;;;;5026846;28;20049;-44
2021/04/02 04:28:02;;;;;;;12.07;4.40;;;3.00;92.00;;;;;;5025644;28;20049;-42
2021/04/02 04:30:34;;;;;;;15.05;5.10;;;3.00;92.10;;;;;;5027009;28;20413;-42
2021/04/02 04:33:00;;;;;;;;;;;3.00;92.10;;;;;;5027558;28;20498;-45
2021/04/02 04:35:31;;;;;;;13.57;4.43;;;3.10;92.30;;;;;;5028917;28;19928;-43
2021/04/02 04:38:04;;;;;;;12.95;4.85;;;3.00;92.20;;;;;;5028507;28;20053;-41
2021/04/02 04:40:36;;;;;;;16.52;5.40;;;3.00;92.30;;;;;;5027738;28;20057;-42
2021/04/02 04:43:07;;;;;;;14.73;5.38;;;3.10;92.00;;;;;;5027816;28;20180;-42
2021/04/02 04:45:33;;;;;;;13.93;5.23;;;3.10;92.10;;;;;;5028739;28;20060;-42
2021/04/02 04:48:03;;;;;;;12.00;4.80;;;3.20;92.20;;;;;;5011052;28;20312;-42
2021/04/02 04:50:34;;;;;;;14.57;4.78;;;3.30;92.10;;;;;;5009302;28;20140;-43
2021/04/02 04:53:11;;;;;;;11.48;4.85;;;3.40;92.00;;;;;;5009136;28;20057;-42
2021/04/02 04:55:40;;;;;;;11.18;4.95;;;3.40;92.00;;;;;;5008747;28;20061;-42
2021/04/02 04:58:15;;;;;;;9.43;4.10;;;3.50;92.00;;;;;;5017116;28;20425;-43
2021/04/02 05:00:43;;;;;;;21.85;4.50;;;3.50;91.70;;;;;;5027814;28;20494;-42
2021/04/02 05:03:21;;;;;;;12.43;3.92;;;3.60;91.70;;;;;;5009943;28;20142;-42
2021/04/02 05:05:54;;;;;;;11.10;4.07;;;3.70;91.80;;;;;;5028254;28;20049;-42
2021/04/02 05:08:54;;;;;;;15.48;4.20;;;3.80;91.60;;;;;;5027085;28;20062;-43
2021/04/02 05:11:26;;;;;;;11.20;4.20;;;3.80;91.40;;;;;;4966031;28;20063;-44
2021/04/02 05:14:01;;;;;;;12.35;3.53;;;4.00;91.30;;;;;;4966094;28;20053;-42
2021/04/02 05:16:32;;;;;;;11.05;3.60;;;4.00;91.20;;;;;;4952600;28;20057;-43
2021/04/02 05:19:01;;;;;;;10.45;3.47;;;4.10;91.10;;;;;;4966050;28;20054;-42
2021/04/02 05:21:29;;;;;;;13.25;3.97;;;4.20;91.00;;;;;;4966180;28;20087;-42
2021/04/02 05:23:56;;;;;;;16.30;4.28;;;4.20;91.00;;;;;;4966812;28;20085;-43
2021/04/02 05:26:28;;;;;;;14.25;4.10;;;4.30;90.90;;;;;;4966274;28;20058;-42
2021/04/02 05:28:56;;;;;;;12.73;3.88;;;4.40;90.90;;;;;;4966502;28;20109;-43
2021/04/02 05:31:24;;;;;;;10.90;3.92;;;4.40;90.70;;;;;;4966215;28;20058;-42
2021/04/02 05:33:51;;;;;;;12.65;4.00;;;4.50;90.60;;;;;;4970722;28;20069;-42
2021/04/02 05:36:19;;;;;;;9.73;3.10;;;4.60;90.60;;;;;;4966767;28;20046;-42
2021/04/02 05:39:02;;;;;;;15.27;4.33;;;4.60;90.60;;;;;;4966181;28;20051;-44
2021/04/02 05:41:42;;;;;;;12.52;3.67;;;4.70;90.70;;;;;;4966203;28;20337;-43
2021/04/02 05:44:26;;;;;;;14.93;3.67;;;4.70;90.30;;;;;;4960897;28;20511;-40
2021/04/02 05:46:55;;;;;;;8.30;3.63;;;4.80;90.20;;;;;;4994317;28;20049;-41
2021/04/02 05:49:22;;;;;;;16.08;5.30;;;5.00;89.90;;;;;;5023661;28;20056;-40
2021/04/02 05:51:52;;;;;;;15.45;5.93;;;5.10;90.10;;;;;;5023542;28;20064;-40
2021/04/02 05:54:35;;;;;;;13.27;4.97;;;5.20;88.80;;;;;;5029916;28;20053;-41
2021/04/02 05:57:09;;;;;;;16.43;7.90;;;5.30;88.40;;;;;;5030208;28;20077;-41
2021/04/02 05:59:46;;;;;;;13.02;4.82;;;5.40;88.40;;;;;;5028694;28;20332;-40
2021/04/02 06:02:16;;;;;;;19.85;4.25;;;5.50;87.70;;;;;;5029171;28;20051;-40
2021/04/02 06:04:47;;;;;;;40.80;28.92;;;5.40;87.70;;;;;;5018383;28;20069;-39
2021/04/02 06:07:16;;;;;;;27.63;11.48;;;5.60;88.30;;;;;;5024541;28;20068;-39
2021/04/02 06:09:44;;;;;;;13.45;4.90;;;5.80;87.80;;;;;;5029088;28;20053;-38
2021/04/02 06:12:13;;;;;;;16.98;7.53;;;5.90;87.00;;;;;;5030653;28;20670;-39
2021/04/02 06:14:39;;;;;;;9.82;3.83;;;6.00;85.70;;;;;;5024590;28;20081;-38
2021/04/02 06:17:05;;;;;;;15.20;4.18;;;5.90;85.80;;;;;;5010646;28;20058;-38
2021/04/02 06:19:33;;;;;;;11.35;3.28;;;5.90;85.70;;;;;;5008559;28;20514;-38
2021/04/02 06:22:05;;;;;;;15.40;3.65;;;5.90;85.70;;;;;;5015856;28;20041;-37
2021/04/02 06:24:42;;;;;;;14.07;4.45;;;6.00;85.60;;;;;;5030019;28;20053;-46
2021/04/02 06:27:14;;;;;;;66.47;44.00;;;6.10;85.30;;;;;;5016060;28;20136;-44
2021/04/02 06:29:42;;;;;;;31.27;18.08;;;6.20;84.30;;;;;;5027061;28;20049;-42
2021/04/02 06:32:35;;;;;;;25.48;14.07;;;6.20;82.60;;;;;;5030589;28;20041;-43
2021/04/02 06:35:14;;;;;;;17.87;6.67;;;6.30;81.40;;;;;;5029078;28;20537;-42
2021/04/02 06:37:45;;;;;;;20.40;10.27;;;6.40;81.60;;;;;;5028388;28;20061;-43
2021/04/02 06:40:22;;;;;;;13.88;4.18;;;6.50;80.40;;;;;;5027734;28;20053;-45
2021/04/02 06:42:53;;;;;;;10.18;3.60;;;6.50;79.80;;;;;;5029044;28;20056;-43
2021/04/02 06:45:22;;;;;;;8.32;2.28;;;6.50;80.10;;;;;;5015059;28;20053;-42
2021/04/02 06:47:51;;;;;;;11.32;2.75;;;6.60;79.70;;;;;;5025991;28;20422;-42
2021/04/02 06:50:30;;;;;;;8.07;2.63;;;6.60;79.90;;;;;;5034855;28;20049;-45
2021/04/02 06:52:58;;;;;;;9.93;2.65;;;6.70;79.90;;;;;;5029778;28;20140;-41
2021/04/02 06:55:28;;;;;;;9.73;2.42;;;6.60;79.50;;;;;;5027196;28;20097;-43
2021/04/02 06:57:56;;;;;;;19.48;8.05;;;6.60;80.20;;;;;;5024725;28;20045;-42
2021/04/02 07:00:27;;;;;;;13.45;3.55;;;6.60;80.60;;;;;;5023857;28;20391;-48
2021/04/02 07:02:53;;;;;;;15.80;6.00;;;6.60;80.70;;;;;;5006659;28;20140;-41
2021/04/02 07:05:24;;;;;;;16.13;6.95;;;6.60;80.10;;;;;;5026425;28;20375;-44
2021/04/02 07:08:09;;;;;;;15.95;5.90;;;6.70;80.20;;;;;;5023920;28;20057;-42
2021/04/02 07:10:39;;;;;;;19.40;8.52;;;6.70;79.60;;;;;;5026516;28;20120;-43
2021/04/02 07:13:06;;;;;;;17.33;6.40;;;6.80;79.60;;;;;;5027205;28;20417;-41
2021/04/02 07:15:34;;;;;;;14.00;6.68;;;6.80;78.50;;;;;;5028817;28;20049;-43
2021/04/02 07:18:06;;;;;;;15.95;4.57;;;6.90;78.70;;;;;;5023154;28;20051;-44
2021/04/02 07:20:34;;;;;;;16.45;5.32;;;6.90;78.00;;;;;;5027226;28;20076;-44
2021/04/02 07:23:07;;;;;;;9.27;2.67;;;7.00;77.40;;;;;;5035293;28;20057;-42
2021/04/02 07:25:38;;;;;;;8.88;2.92;;;6.90;77.00;;;;;;5034252;28;20156;-43
2021/04/02 07:28:07;;;;;;;15.65;3.47;;;7.00;77.50;;;;;;5029999;28;20053;-45
2021/04/02 07:30:46;;;;;;;11.55;3.10;;;6.90;77.00;;;;;;5021372;28;20045;-45
2021/04/02 07:33:21;;;;;;;7.80;3.00;;;7.10;77.50;;;;;;5014937;28;20037;-46
2021/04/02 07:36:09;;;;;;;10.82;2.47;;;7.20;76.50;;;;;;5034479;28;20044;-45
2021/04/02 07:38:52;;;;;;;10.95;2.90;;;7.20;76.10;;;;;;5023878;28;20052;-43
2021/04/02 07:41:28;;;;;;;49.35;32.22;;;7.20;74.80;;;;;;5023030;28;20049;-48
2021/04/02 07:44:01;;;;;;;35.63;20.30;;;7.20;74.40;;;;;;5026109;28;20070;-44
2021/04/02 07:46:33;;;;;;;13.85;3.50;;;7.60;76.20;;;;;;5025913;28;20053;-44
2021/04/02 07:49:12;;;;;;;30.73;17.65;;;7.50;74.10;;;;;;5026522;28;20053;-44
2021/04/02 07:51:51;;;;;;;13.73;4.07;;;7.40;74.00;;;;;;5027449;28;20091;-44
2021/04/02 07:54:33;;;;;;;17.02;7.13;;;7.40;72.10;;;;;;5022683;28;20045;-44
2021/04/02 07:57:12;;;;;;;12.52;4.93;;;7.40;72.40;;;;;;5028828;28;20080;-43
2021/04/02 07:59:44;;;;;;;15.25;5.32;;;7.50;73.20;;;;;;5025863;28;20061;-49
2021/04/02 08:02:40;;;;;;;10.20;4.45;;;7.60;73.00;;;;;;5025398;28;20049;-46
2021/04/02 08:05:19;;;;;;;10.55;3.58;;;7.70;72.90;;;;;;5021817;28;20054;-44
2021/04/02 08:07:57;;;;;;;12.18;2.47;;;7.90;72.80;;;;;;5023129;28;20045;-43
2021/04/02 08:10:27;;;;;;;63.58;43.97;;;7.80;72.10;;;;;;5024118;28;20410;-45
2021/04/02 08:12:57;;;;;;;10.77;2.92;;;8.00;73.20;;;;;;5023910;28;20183;-43
2021/04/02 08:15:36;;;;;;;14.60;4.22;;;7.80;72.40;;;;;;5024223;28;20487;-43
2021/04/02 08:18:20;;;;;;;23.10;10.20;;;7.80;73.30;;;;;;5025198;28;20068;-46
2021/04/02 08:20:59;;;;;;;13.32;3.42;;;7.80;72.20;;;;;;5032750;28;20045;-45
2021/04/02 08:23:27;;;;;;;16.35;6.88;;;7.70;71.20;;;;;;5025007;28;20077;-42
2021/04/02 08:25:58;;;;;;;19.75;8.77;;;7.80;71.60;;;;;;5025991;28;20124;-44
2021/04/02 08:28:38;;;;;;;12.48;4.75;;;7.80;71.90;;;;;;5025040;28;20045;-45
2021/04/02 08:31:13;;;;;;;16.33;4.43;;;7.90;71.50;;;;;;5023344;28;20489;-43
2021/04/02 08:33:57;;;;;;;77.95;53.13;;;8.00;70.70;;;;;;5026457;28;20056;-46
2021/04/02 08:36:32;;;;;;;21.50;8.77;;;8.10;70.00;;;;;;4991556;28;20096;-45
2021/04/02 08:39:05;;;;;;;21.33;8.68;;;8.10;70.10;;;;;;5032506;28;20046;-45
2021/04/02 08:41:39;;;;;;;16.83;5.18;;;8.10;69.90;;;;;;5025322;28;20054;-44
2021/04/02 08:44:08;;;;;;;21.42;3.97;;;8.20;69.30;;;;;;5025990;28;20049;-46
2021/04/02 08:46:47;;;;;;;9.68;3.20;;;8.30;69.60;;;;;;5023453;28;20609;-45
2021/04/02 08:49:24;;;;;;;12.15;3.60;;;8.30;69.30;;;;;;5026388;28;20049;-45
2021/04/02 08:51:56;;;;;;;14.70;6.60;;;8.30;68.20;;;;;;5025506;28;20459;-43
2021/04/02 08:54:34;;;;;;;10.55;2.70;;;8.60;68.60;;;;;;5026663;28;20128;-45
2021/04/02 08:57:03;;;;;;;16.73;3.28;;;8.60;67.20;;;;;;5026641;28;20049;-42
2021/04/02 08:59:34;;;;;;;14.10;3.08;;;8.70;67.20;;;;;;5024632;28;20053;-46
2021/04/02 09:02:06;;;;;;;14.50;3.20;;;8.70;65.10;;;;;;5022706;28;20481;-45
2021/04/02 09:04:43;;;;;;;10.15;3.60;;;8.80;66.00;;;;;;5025127;28;20559;-47
2021/04/02 09:07:15;;;;;;;12.75;3.25;;;8.80;66.90;;;;;;5025636;28;20069;-46
2021/04/02 09:09:46;;;;;;;11.10;3.38;;;9.00;67.20;;;;;;5024331;28;20049;-45
2021/04/02 09:12:23;;;;;;;45.45;29.63;;;9.10;66.40;;;;;;5023416;28;20056;-46
2021/04/02 09:14:55;;;;;;;31.98;17.27;;;9.40;67.40;;;;;;5015887;28;20060;-43
2021/04/02 09:17:28;;;;;;;17.63;6.95;;;9.40;65.50;;;;;;5024297;28;20579;-44
2021/04/02 09:20:05;;;;;;;13.45;2.70;;;9.30;65.50;;;;;;5013639;28;20111;-45
2021/04/02 09:22:38;;;;;;;10.55;2.70;;;9.40;65.40;;;;;;5026761;28;20111;-42
2021/04/02 09:25:18;;;;;;;11.45;3.92;;;8.80;64.00;;;;;;5019712;28;20520;-43
2021/04/02 09:28:07;;;;;;;17.08;4.00;;;9.00;66.10;;;;;;5024299;28;20124;-41
2021/04/02 09:30:39;;;;;;;11.15;3.60;;;8.80;65.70;;;;;;5027308;28;20103;-48
2021/04/02 09:33:20;;;;;;;10.98;3.60;;;8.90;66.00;;;;;;5024635;28;20053;-47
2021/04/02 09:35:56;;;;;;;10.23;2.55;;;9.00;65.70;;;;;;5029274;28;20041;-45
2021/04/02 09:38:31;;;;;;;12.18;3.33;;;9.30;65.50;;;;;;5023566;28;20072;-46
2021/04/02 09:41:15;;;;;;;12.27;3.67;;;9.40;65.70;;;;;;5023595;28;20187;-45
2021/04/02 09:43:47;;;;;;;112.13;84.22;;;9.80;64.90;;;;;;5025716;28;20323;-43
2021/04/02 09:46:28;;;;;;;29.80;13.63;;;9.80;65.50;;;;;;5006885;28;20494;-44
2021/04/02 09:49:04;;;;;;;23.63;13.30;;;10.10;64.10;;;;;;5035193;28;20087;-40
2021/04/02 09:51:31;;;;;;;22.67;10.35;;;9.70;62.30;;;;;;5038867;28;20041;-38
2021/04/02 09:54:07;;;;;;;10.25;2.38;;;9.60;64.40;;;;;;5029261;28;20064;-39
2021/04/02 09:56:34;;;;;;;13.98;5.38;;;9.30;65.20;;;;;;5023670;28;20049;-40
2021/04/02 09:59:02;;;;;;;9.38;3.40;;;9.30;65.60;;;;;;5024716;28;20053;-41
2021/04/02 10:01:38;;;;;;;10.75;2.42;;;9.20;65.90;;;;;;5022431;28;20057;-40
2021/04/02 10:04:11;;;;;;;13.77;3.92;;;9.20;65.60;;;;;;5004309;28;20558;-40
2021/04/02 10:06:44;;;;;;;14.15;3.70;;;9.10;66.10;;;;;;5024706;28;20046;-43
2021/04/02 10:09:17;;;;;;;16.10;2.97;;;9.00;67.00;;;;;;5024430;28;20056;-39
2021/04/02 10:11:54;;;;;;;13.25;3.40;;;9.00;66.90;;;;;;5023931;28;20057;-41
2021/04/02 10:14:22;;;;;;;15.98;3.42;;;8.90;67.70;;;;;;5024661;28;20049;-39
2021/04/02 10:16:56;;;;;;;12.27;2.97;;;8.80;68.50;;;;;;5023970;28;20803;-41
2021/04/02 10:19:25;;;;;;;11.70;3.40;;;8.70;68.80;;;;;;5023356;28;20073;-41
2021/04/02 10:21:59;;;;;;;11.13;2.85;;;8.70;69.50;;;;;;5006779;28;20057;-38
2021/04/02 10:24:27;;;;;;;10.63;2.38;;;8.50;69.30;;;;;;5025491;28;20128;-42
2021/04/02 10:26:58;;;;;;;11.83;2.77;;;8.50;70.00;;;;;;5025466;28;20103;-40
2021/04/02 10:29:28;;;;;;;10.95;2.13;;;8.60;69.80;;;;;;5024737;28;20970;-41
2021/04/02 10:31:58;;;;;;;12.73;4.78;;;8.60;69.70;;;;;;5022043;28;20059;-39
2021/04/02 10:34:24;;;;;;;12.10;2.50;;;8.60;69.20;;;;;;5021040;28;20049;-40
2021/04/02 10:36:53;;;;;;;16.15;5.47;;;8.60;68.40;;;;;;5025959;28;20057;-40
2021/04/02 10:39:19;;;;;;;14.68;2.83;;;8.70;68.90;;;;;;5029547;28;20508;-40
2021/04/02 10:41:48;;;;;;;14.13;3.60;;;8.80;68.60;;;;;;5028695;28;20148;-40
2021/04/02 10:44:19;;;;;;;11.00;3.83;;;8.80;68.70;;;;;;5029862;28;20055;-40
2021/04/02 10:46:45;;;;;;;15.95;3.40;;;8.70;69.20;;;;;;5028280;28;20394;-39
2021/04/02 10:49:29;;;;;;;33.97;21.88;;;8.60;69.80;;;;;;5028379;28;20137;-45
2021/04/02 10:52:05;;;;;;;20.98;12.73;;;8.70;71.40;;;;;;5028096;28;20053;-45
2021/04/02 10:54:34;;;;;;;20.15;10.90;;;8.60;70.70;;;;;;5009139;28;20050;-44
2021/04/02 10:57:04;;;;;;;24.08;15.10;;;8.70;71.30;;;;;;5011321;28;20050;-47
2021/04/02 10:59:36;;;;;;;14.48;4.68;;;8.70;71.70;;;;;;5028986;28;20529;-39
2021/04/02 11:02:07;;;;;;;11.10;2.38;;;8.50;70.70;;;;;;5029958;28;20046;-39
2021/04/02 11:04:33;;;;;;;12.23;2.53;;;8.60;70.80;;;;;;5030749;28;20064;-39
2021/04/02 11:07:04;;;;;;;8.55;2.13;;;8.70;70.20;;;;;;5012832;28;20053;-39
2021/04/02 11:09:33;;;;;;;11.65;4.18;;;8.90;69.50;;;;;;5030510;28;20075;-39
2021/04/02 11:11:58;;;;;;;12.73;3.22;;;9.00;69.00;;;;;;5031822;28;20119;-39
2021/04/02 11:14:30;;;;;;;11.40;2.88;;;9.00;68.40;;;;;;5029065;28;20053;-40
2021/04/02 11:16:57;;;;;;;13.13;3.28;;;8.90;68.40;;;;;;5021616;28;20042;-39
2021/04/02 11:19:29;;;;;;;13.20;2.83;;;8.70;68.90;;;;;;5010147;28;20061;-39
2021/04/02 11:21:57;;;;;;;9.65;2.83;;;8.60;69.00;;;;;;5019100;28;20041;-39
2021/04/02 11:24:28;;;;;;;11.73;2.78;;;8.50;68.90;;;;;;5028143;28;20057;-39
2021/04/02 11:26:55;;;;;;;12.65;2.50;;;8.50;69.40;;;;;;5028531;28;20050;-39
2021/04/02 11:29:32;;;;;;;8.15;2.78;;;8.50;70.30;;;;;;5027767;28;20427;-39
2021/04/02 11:31:59;;;;;;;21.77;3.40;;;8.50;71.50;;;;;;5013786;28;20564;-39
2021/04/02 11:34:31;;;;;;;10.85;2.20;;;8.50;71.00;;;;;;5029966;28;20081;-39
2021/04/02 11:37:06;;;;;;;11.43;2.67;;;8.40;71.00;;;;;;5020601;28;20056;-40
2021/04/02 11:39:33;;;;;;;14.18;2.65;;;8.40;70.90;;;;;;5009472;28;20048;-39
2021/04/02 11:42:05;;;;;;;17.30;2.90;;;8.20;70.90;;;;;;5026608;28;20509;-40
2021/04/02 11:44:33;;;;;;;13.93;2.45;;;8.30;71.00;;;;;;5030218;28;20048;-40
2021/04/02 11:47:04;;;;;;;11.55;2.38;;;8.20;70.70;;;;;;5024004;28;20088;-39
2021/04/02 11:49:32;;;;;;;9.23;2.30;;;8.20;69.80;;;;;;5025294;28;20053;-39
2021/04/02 11:51:58;;;;;;;11.98;2.65;;;8.20;70.60;;;;;;5016908;28;20094;-38
2021/04/02 11:54:27;;;;;;;12.10;2.67;;;8.40;70.40;;;;;;5024995;28;20146;-39
2021/04/02 11:56:56;;;;;;;8.50;2.25;;;8.40;70.10;;;;;;5012352;28;20600;-39
2021/04/02 11:59:28;;;;;;;10.25;2.40;;;8.50;69.70;;;;;;5026220;28;20058;-39
2021/04/02 12:01:57;;;;;;;9.10;2.35;;;8.50;69.20;;;;;;5019198;28;20046;-39
2021/04/02 12:04:23;;;;;;;11.65;2.38;;;8.40;69.70;;;;;;5024929;28;20141;-38
2021/04/02 12:06:49;;;;;;;8.00;2.25;;;8.40;69.60;;;;;;5002316;28;20103;-38
2021/04/02 12:09:18;;;;;;;10.55;2.30;;;8.50;69.60;;;;;;4987581;28;20057;-38
2021/04/02 12:11:47;;;;;;;8.27;2.05;;;8.80;69.80;;;;;;4968220;28;20763;-38
2021/04/02 12:14:21;;;;;;;13.40;2.33;;;8.90;69.10;;;;;;4986305;28;20657;-38
2021/04/02 12:16:47;;;;;;;8.43;2.05;;;8.70;68.60;;;;;;4988443;28;20042;-38
2021/04/02 12:19:15;;;;;;;11.48;3.35;;;8.50;68.70;;;;;;4988325;28;20120;-38
2021/04/02 12:21:47;;;;;;;14.95;7.15;;;8.60;69.50;;;;;;4988933;28;20518;-38
2021/04/02 12:24:13;;;;;;;15.43;5.28;;;8.40;69.60;;;;;;4987416;28;20062;-39
2021/04/02 12:26:43;;;;;;;17.52;4.70;;;8.30;70.10;;;;;;4985080;28;20054;-39
2021/04/02 12:29:12;;;;;;;13.55;5.60;;;8.40;70.00;;;;;;4992533;28;20053;-39
2021/04/02 12:31:49;;;;;;;14.90;6.07;;;8.50;70.10;;;;;;5006000;28;20054;-39
2021/04/02 12:34:18;;;;;;;13.10;5.05;;;8.60;69.60;;;;;;5001175;28;20080;-39
2021/04/02 12:36:53;;;;;;;11.00;2.70;;;9.00;69.30;;;;;;5004015;28;20621;-40
2021/04/02 12:39:21;;;;;;;15.75;6.80;;;9.20;67.80;;;;;;5003372;28;20057;-40
2021/04/02 12:41:54;;;;;;;14.55;7.53;;;9.20;66.60;;;;;;4995760;28;20042;-40
2021/04/02 12:44:20;;;;;;;13.10;2.72;;;9.20;67.20;;;;;;5003260;28;20545;-40
2021/04/02 12:46:49;;;;;;;20.05;4.55;;;8.80;67.30;;;;;;4995759;28;20042;-40
2021/04/02 12:49:18;;;;;;;9.45;2.20;;;8.70;68.20;;;;;;5000672;28;20195;-39
2021/04/02 12:51:48;;;;;;;17.13;4.60;;;8.60;68.40;;;;;;4994519;28;20561;-38
2021/04/02 12:54:23;;;;;;;13.88;2.92;;;8.80;68.80;;;;;;4998484;28;20046;-39
2021/04/02 12:56:49;;;;;;;13.57;3.53;;;8.70;67.10;;;;;;4997826;28;20053;-39
2021/04/02 12:59:18;;;;;;;12.88;3.13;;;8.90;67.20;;;;;;5001855;28;20554;-38
2021/04/02 13:01:47;;;;;;;9.23;2.33;;;9.10;65.60;;;;;;5008019;28;20128;-39
2021/04/02 13:04:17;;;;;;;12.30;2.95;;;9.30;63.60;;;;;;4998193;28;20057;-39
2021/04/02 13:06:45;;;;;;;15.52;2.90;;;9.20;64.60;;;;;;5002652;28;20478;-39
2021/04/02 13:09:11;;;;;;;11.57;2.15;;;9.20;63.90;;;;;;5023020;28;20128;-39
2021/04/02 13:11:40;;;;;;;9.43;2.30;;;9.00;65.10;;;;;;5019207;28;20057;-39
2021/04/02 13:14:09;;;;;;;15.32;3.60;;;9.20;65.10;;;;;;5022433;28;20053;-39